Terminal Aerodrome Forecast
Issued by NWS Portland, OR

Home | Current Version | Previous Version | Text Only | Print | Product List | Glossary On
Versions: 1 2 3 4 5 6 7 8 9 10 11 12 13 14 15
000
FTUS46 KPQR 180534
TAFEUG
TAF
KEUG 180534Z 1806/1906 20010KT 6SM -RA SCT030 OVC050
     FM181200 19016KT 4SM -RA SCT015 BKN030 OVC050
     FM181800 18011KT P6SM -SHRA BKN030 OVC050
     FM190000 17007KT P6SM -SHRA OVC050=

USA.gov is the U.S. government's official web portal to all federal, state and local government web resources and services.